sensor_id;sensor_type;location;lat;lon;timestamp;P1;durP1;ratioP1;P2;durP2;ratioP2
54157;SDS011;40065;49.894;10.358;2022-11-11T00:04:43;4.53;;;2.35;;
54157;SDS011;40065;49.894;10.358;2022-11-11T00:10:03;3.30;;;2.30;;
54157;SDS011;40065;49.894;10.358;2022-11-11T00:15:24;3.95;;;2.20;;
54157;SDS011;40065;49.894;10.358;2022-11-11T00:20:44;7.85;;;2.72;;
54157;SDS011;40065;49.894;10.358;2022-11-11T00:26:23;6.60;;;2.30;;
54157;SDS011;40065;49.894;10.358;2022-11-11T00:31:59;3.97;;;2.35;;
54157;SDS011;40065;49.894;10.358;2022-11-11T00:37:38;4.93;;;2.40;;
54157;SDS011;40065;49.894;10.358;2022-11-11T00:42:59;3.88;;;1.92;;
54157;SDS011;40065;49.894;10.358;2022-11-11T00:48:20;3.78;;;1.77;;
54157;SDS011;40065;49.894;10.358;2022-11-11T00:54:00;3.80;;;1.95;;
54157;SDS011;40065;49.894;10.358;2022-11-11T00:59:20;4.82;;;2.50;;
54157;SDS011;40065;49.894;10.358;2022-11-11T01:04:41;5.38;;;2.67;;
54157;SDS011;40065;49.894;10.358;2022-11-11T01:10:02;6.68;;;2.72;;
54157;SDS011;40065;49.894;10.358;2022-11-11T01:15:23;4.93;;;2.55;;
54157;SDS011;40065;49.894;10.358;2022-11-11T01:20:43;4.93;;;2.70;;
54157;SDS011;40065;49.894;10.358;2022-11-11T01:26:05;4.47;;;2.40;;
54157;SDS011;40065;49.894;10.358;2022-11-11T01:31:28;4.32;;;2.80;;
54157;SDS011;40065;49.894;10.358;2022-11-11T01:36:48;5.95;;;2.70;;
54157;SDS011;40065;49.894;10.358;2022-11-11T01:42:08;5.93;;;2.97;;
54157;SDS011;40065;49.894;10.358;2022-11-11T01:47:29;4.95;;;2.67;;
54157;SDS011;40065;49.894;10.358;2022-11-11T01:53:30;4.75;;;2.70;;
54157;SDS011;40065;49.894;10.358;2022-11-11T01:58:50;6.80;;;2.92;;
54157;SDS011;40065;49.894;10.358;2022-11-11T02:04:14;4.30;;;2.50;;
54157;SDS011;40065;49.894;10.358;2022-11-11T02:09:55;4.82;;;2.20;;
54157;SDS011;40065;49.894;10.358;2022-11-11T02:15:16;3.90;;;2.70;;
54157;SDS011;40065;49.894;10.358;2022-11-11T02:20:38;5.78;;;2.83;;
54157;SDS011;40065;49.894;10.358;2022-11-11T02:26:02;4.78;;;2.75;;
54157;SDS011;40065;49.894;10.358;2022-11-11T02:31:26;3.47;;;2.42;;
54157;SDS011;40065;49.894;10.358;2022-11-11T02:36:48;6.25;;;3.05;;
54157;SDS011;40065;49.894;10.358;2022-11-11T02:42:09;3.97;;;2.53;;
54157;SDS011;40065;49.894;10.358;2022-11-11T02:47:33;4.20;;;2.08;;
54157;SDS011;40065;49.894;10.358;2022-11-11T02:52:54;3.40;;;1.95;;
54157;SDS011;40065;49.894;10.358;2022-11-11T02:58:15;5.78;;;2.70;;
54157;SDS011;40065;49.894;10.358;2022-11-11T03:03:36;4.72;;;2.17;;
54157;SDS011;40065;49.894;10.358;2022-11-11T03:08:57;7.78;;;4.22;;
54157;SDS011;40065;49.894;10.358;2022-11-11T03:14:18;3.95;;;2.53;;
54157;SDS011;40065;49.894;10.358;2022-11-11T03:19:39;5.35;;;2.70;;
54157;SDS011;40065;49.894;10.358;2022-11-11T03:25:00;3.47;;;2.08;;
54157;SDS011;40065;49.894;10.358;2022-11-11T03:30:40;6.32;;;2.53;;
54157;SDS011;40065;49.894;10.358;2022-11-11T03:36:02;3.13;;;2.22;;
54157;SDS011;40065;49.894;10.358;2022-11-11T03:41:22;4.80;;;2.70;;
54157;SDS011;40065;49.894;10.358;2022-11-11T03:46:42;6.60;;;3.13;;
54157;SDS011;40065;49.894;10.358;2022-11-11T03:52:02;5.18;;;3.17;;
54157;SDS011;40065;49.894;10.358;2022-11-11T03:57:23;6.35;;;3.60;;
54157;SDS011;40065;49.894;10.358;2022-11-11T04:02:49;3.90;;;3.05;;
54157;SDS011;40065;49.894;10.358;2022-11-11T04:08:28;3.80;;;2.55;;
54157;SDS011;40065;49.894;10.358;2022-11-11T04:14:10;5.07;;;3.33;;
54157;SDS011;40065;49.894;10.358;2022-11-11T04:19:51;4.40;;;3.10;;
54157;SDS011;40065;49.894;10.358;2022-11-11T04:25:30;6.30;;;3.33;;
54157;SDS011;40065;49.894;10.358;2022-11-11T04:31:09;5.47;;;3.22;;
54157;SDS011;40065;49.894;10.358;2022-11-11T04:36:29;4.93;;;2.38;;
54157;SDS011;40065;49.894;10.358;2022-11-11T04:41:49;6.10;;;3.25;;
54157;SDS011;40065;49.894;10.358;2022-11-11T04:47:27;4.78;;;2.50;;
54157;SDS011;40065;49.894;10.358;2022-11-11T04:52:47;4.28;;;2.30;;
54157;SDS011;40065;49.894;10.358;2022-11-11T04:58:08;3.35;;;2.47;;
54157;SDS011;40065;49.894;10.358;2022-11-11T05:03:29;6.63;;;3.00;;
54157;SDS011;40065;49.894;10.358;2022-11-11T05:08:49;5.85;;;3.67;;
54157;SDS011;40065;49.894;10.358;2022-11-11T05:14:16;5.78;;;3.40;;
54157;SDS011;40065;49.894;10.358;2022-11-11T05:19:55;6.40;;;3.90;;
54157;SDS011;40065;49.894;10.358;2022-11-11T05:25:34;5.90;;;4.55;;
54157;SDS011;40065;49.894;10.358;2022-11-11T05:30:55;4.95;;;3.92;;
54157;SDS011;40065;49.894;10.358;2022-11-11T05:36:15;5.53;;;4.15;;
54157;SDS011;40065;49.894;10.358;2022-11-11T05:41:36;4.57;;;3.60;;
54157;SDS011;40065;49.894;10.358;2022-11-11T05:46:56;5.07;;;3.78;;
54157;SDS011;40065;49.894;10.358;2022-11-11T05:52:17;8.38;;;6.18;;
54157;SDS011;40065;49.894;10.358;2022-11-11T05:57:37;7.18;;;5.78;;
54157;SDS011;40065;49.894;10.358;2022-11-11T06:03:01;7.82;;;4.95;;
54157;SDS011;40065;49.894;10.358;2022-11-11T06:08:22;6.93;;;4.55;;
54157;SDS011;40065;49.894;10.358;2022-11-11T06:13:43;8.98;;;6.15;;
54157;SDS011;40065;49.894;10.358;2022-11-11T06:19:03;7.93;;;6.32;;
54157;SDS011;40065;49.894;10.358;2022-11-11T06:24:24;9.52;;;7.15;;
54157;SDS011;40065;49.894;10.358;2022-11-11T06:29:45;9.95;;;6.93;;
54157;SDS011;40065;49.894;10.358;2022-11-11T06:35:06;9.63;;;6.82;;
54157;SDS011;40065;49.894;10.358;2022-11-11T06:40:26;9.18;;;6.75;;
54157;SDS011;40065;49.894;10.358;2022-11-11T06:45:50;10.32;;;6.72;;
54157;SDS011;40065;49.894;10.358;2022-11-11T06:51:12;10.20;;;6.72;;
54157;SDS011;40065;49.894;10.358;2022-11-11T06:56:33;10.43;;;7.07;;
54157;SDS011;40065;49.894;10.358;2022-11-11T07:01:53;9.00;;;6.50;;
54157;SDS011;40065;49.894;10.358;2022-11-11T07:07:13;9.95;;;7.05;;
54157;SDS011;40065;49.894;10.358;2022-11-11T07:12:39;8.95;;;6.85;;
54157;SDS011;40065;49.894;10.358;2022-11-11T07:18:00;11.25;;;6.50;;
54157;SDS011;40065;49.894;10.358;2022-11-11T07:23:21;9.55;;;6.40;;
54157;SDS011;40065;49.894;10.358;2022-11-11T07:28:41;8.05;;;5.57;;
54157;SDS011;40065;49.894;10.358;2022-11-11T07:34:01;8.20;;;4.43;;
54157;SDS011;40065;49.894;10.358;2022-11-11T07:39:21;4.97;;;3.42;;
54157;SDS011;40065;49.894;10.358;2022-11-11T07:44:42;4.07;;;3.15;;
54157;SDS011;40065;49.894;10.358;2022-11-11T07:50:08;3.38;;;2.67;;
54157;SDS011;40065;49.894;10.358;2022-11-11T07:55:29;4.68;;;3.88;;
54157;SDS011;40065;49.894;10.358;2022-11-11T08:00:49;8.40;;;6.75;;
54157;SDS011;40065;49.894;10.358;2022-11-11T08:06:10;5.35;;;3.30;;
54157;SDS011;40065;49.894;10.358;2022-11-11T08:11:30;3.25;;;2.58;;
54157;SDS011;40065;49.894;10.358;2022-11-11T08:17:09;3.78;;;3.17;;
54157;SDS011;40065;49.894;10.358;2022-11-11T08:22:34;5.93;;;2.70;;
54157;SDS011;40065;49.894;10.358;2022-11-11T08:27:59;9.48;;;5.18;;
54157;SDS011;40065;49.894;10.358;2022-11-11T08:33:21;3.20;;;2.38;;
54157;SDS011;40065;49.894;10.358;2022-11-11T08:38:57;3.53;;;2.45;;
54157;SDS011;40065;49.894;10.358;2022-11-11T08:44:18;3.08;;;2.75;;
54157;SDS011;40065;49.894;10.358;2022-11-11T08:49:38;7.53;;;2.90;;
54157;SDS011;40065;49.894;10.358;2022-11-11T08:54:58;9.88;;;2.92;;
54157;SDS011;40065;49.894;10.358;2022-11-11T09:00:18;5.03;;;2.72;;
54157;SDS011;40065;49.894;10.358;2022-11-11T09:05:39;3.88;;;2.55;;
54157;SDS011;40065;49.894;10.358;2022-11-11T09:11:00;3.85;;;2.35;;
54157;SDS011;40065;49.894;10.358;2022-11-11T09:16:20;3.35;;;2.53;;
54157;SDS011;40065;49.894;10.358;2022-11-11T09:21:40;3.05;;;2.58;;
54157;SDS011;40065;49.894;10.358;2022-11-11T09:27:01;3.53;;;2.55;;
54157;SDS011;40065;49.894;10.358;2022-11-11T09:32:21;3.92;;;2.55;;
54157;SDS011;40065;49.894;10.358;2022-11-11T09:37:41;4.53;;;2.83;;
54157;SDS011;40065;49.894;10.358;2022-11-11T09:48:50;7.15;;;3.30;;
54157;SDS011;40065;49.894;10.358;2022-11-11T09:54:34;4.97;;;3.40;;
54157;SDS011;40065;49.894;10.358;2022-11-11T10:00:00;4.72;;;3.40;;
54157;SDS011;40065;49.894;10.358;2022-11-11T10:05:25;5.67;;;3.80;;
54157;SDS011;40065;49.894;10.358;2022-11-11T10:10:59;4.65;;;3.50;;
54157;SDS011;40065;49.894;10.358;2022-11-11T10:16:39;6.75;;;4.05;;
54157;SDS011;40065;49.894;10.358;2022-11-11T10:22:24;8.30;;;4.90;;
54157;SDS011;40065;49.894;10.358;2022-11-11T10:27:53;5.90;;;4.60;;
54157;SDS011;40065;49.894;10.358;2022-11-11T10:33:27;4.53;;;3.85;;
54157;SDS011;40065;49.894;10.358;2022-11-11T10:38:54;6.10;;;3.47;;
54157;SDS011;40065;49.894;10.358;2022-11-11T10:44:20;5.10;;;3.53;;
54157;SDS011;40065;49.894;10.358;2022-11-11T10:50:02;8.40;;;4.70;;
54157;SDS011;40065;49.894;10.358;2022-11-11T11:06:23;4.80;;;3.47;;
54157;SDS011;40065;49.894;10.358;2022-11-11T11:17:35;7.53;;;3.63;;
54157;SDS011;40065;49.894;10.358;2022-11-11T11:23:00;4.88;;;3.30;;
54157;SDS011;40065;49.894;10.358;2022-11-11T11:28:21;7.88;;;4.18;;
54157;SDS011;40065;49.894;10.358;2022-11-11T11:33:52;8.98;;;4.00;;
54157;SDS011;40065;49.894;10.358;2022-11-11T11:39:14;5.30;;;4.07;;
54157;SDS011;40065;49.894;10.358;2022-11-11T11:44:52;6.03;;;4.40;;
54157;SDS011;40065;49.894;10.358;2022-11-11T11:55:55;7.72;;;5.13;;
54157;SDS011;40065;49.894;10.358;2022-11-11T12:13:20;10.02;;;5.10;;
54157;SDS011;40065;49.894;10.358;2022-11-11T12:19:11;5.85;;;4.45;;
54157;SDS011;40065;49.894;10.358;2022-11-11T12:25:01;5.90;;;4.30;;
54157;SDS011;40065;49.894;10.358;2022-11-11T12:30:31;7.93;;;5.28;;
54157;SDS011;40065;49.894;10.358;2022-11-11T12:36:00;10.73;;;5.88;;
54157;SDS011;40065;49.894;10.358;2022-11-11T12:47:41;5.05;;;3.78;;
54157;SDS011;40065;49.894;10.358;2022-11-11T12:58:56;7.28;;;5.60;;
54157;SDS011;40065;49.894;10.358;2022-11-11T13:16:07;8.60;;;5.80;;
54157;SDS011;40065;49.894;10.358;2022-11-11T13:21:30;7.35;;;4.85;;
54157;SDS011;40065;49.894;10.358;2022-11-11T13:27:15;6.22;;;4.82;;
54157;SDS011;40065;49.894;10.358;2022-11-11T13:32:52;7.93;;;4.95;;
54157;SDS011;40065;49.894;10.358;2022-11-11T13:38:43;9.38;;;5.35;;
54157;SDS011;40065;49.894;10.358;2022-11-11T13:44:05;5.13;;;4.63;;
54157;SDS011;40065;49.894;10.358;2022-11-11T13:49:30;6.10;;;4.70;;
54157;SDS011;40065;49.894;10.358;2022-11-11T13:54:58;11.65;;;6.13;;
54157;SDS011;40065;49.894;10.358;2022-11-11T14:05:41;9.43;;;7.80;;
54157;SDS011;40065;49.894;10.358;2022-11-11T14:11:02;10.68;;;7.25;;
54157;SDS011;40065;49.894;10.358;2022-11-11T14:21:55;8.57;;;6.53;;
54157;SDS011;40065;49.894;10.358;2022-11-11T14:27:21;7.57;;;5.45;;
54157;SDS011;40065;49.894;10.358;2022-11-11T14:32:52;7.82;;;5.78;;
54157;SDS011;40065;49.894;10.358;2022-11-11T14:38:21;10.80;;;6.80;;
54157;SDS011;40065;49.894;10.358;2022-11-11T14:43:49;13.18;;;8.30;;
54157;SDS011;40065;49.894;10.358;2022-11-11T14:49:09;9.98;;;7.18;;
54157;SDS011;40065;49.894;10.358;2022-11-11T14:54:41;10.05;;;7.72;;
54157;SDS011;40065;49.894;10.358;2022-11-11T15:00:22;16.92;;;12.70;;
54157;SDS011;40065;49.894;10.358;2022-11-11T15:06:01;13.18;;;8.90;;
54157;SDS011;40065;49.894;10.358;2022-11-11T15:17:14;15.95;;;10.43;;
54157;SDS011;40065;49.894;10.358;2022-11-11T15:39:51;14.18;;;9.00;;
54157;SDS011;40065;49.894;10.358;2022-11-11T15:50:44;15.80;;;11.23;;
54157;SDS011;40065;49.894;10.358;2022-11-11T15:56:04;17.48;;;11.48;;
54157;SDS011;40065;49.894;10.358;2022-11-11T16:01:25;15.40;;;9.82;;
54157;SDS011;40065;49.894;10.358;2022-11-11T16:06:47;16.85;;;11.10;;
54157;SDS011;40065;49.894;10.358;2022-11-11T16:12:09;15.57;;;10.30;;
54157;SDS011;40065;49.894;10.358;2022-11-11T16:17:33;13.80;;;9.60;;
54157;SDS011;40065;49.894;10.358;2022-11-11T16:22:58;12.15;;;8.38;;
54157;SDS011;40065;49.894;10.358;2022-11-11T16:28:22;15.20;;;10.13;;
54157;SDS011;40065;49.894;10.358;2022-11-11T16:33:44;16.52;;;11.13;;
54157;SDS011;40065;49.894;10.358;2022-11-11T16:45:18;33.47;;;19.90;;
54157;SDS011;40065;49.894;10.358;2022-11-11T16:50:53;27.27;;;17.73;;
54157;SDS011;40065;49.894;10.358;2022-11-11T16:56:20;35.42;;;20.80;;
54157;SDS011;40065;49.894;10.358;2022-11-11T17:01:49;27.38;;;18.83;;
54157;SDS011;40065;49.894;10.358;2022-11-11T17:07:11;30.17;;;19.42;;
54157;SDS011;40065;49.894;10.358;2022-11-11T17:12:46;34.08;;;22.70;;
54157;SDS011;40065;49.894;10.358;2022-11-11T17:18:10;27.25;;;20.55;;
54157;SDS011;40065;49.894;10.358;2022-11-11T17:23:32;29.88;;;20.17;;
54157;SDS011;40065;49.894;10.358;2022-11-11T17:28:59;31.00;;;20.65;;
54157;SDS011;40065;49.894;10.358;2022-11-11T17:34:19;43.63;;;26.67;;
54157;SDS011;40065;49.894;10.358;2022-11-11T17:40:00;69.03;;;38.28;;
54157;SDS011;40065;49.894;10.358;2022-11-11T17:45:21;46.72;;;29.73;;
54157;SDS011;40065;49.894;10.358;2022-11-11T17:50:41;34.00;;;23.15;;
54157;SDS011;40065;49.894;10.358;2022-11-11T17:56:02;31.35;;;20.90;;
54157;SDS011;40065;49.894;10.358;2022-11-11T18:01:23;35.72;;;23.10;;
54157;SDS011;40065;49.894;10.358;2022-11-11T18:06:43;33.90;;;22.13;;
54157;SDS011;40065;49.894;10.358;2022-11-11T18:12:04;37.67;;;24.73;;
54157;SDS011;40065;49.894;10.358;2022-11-11T18:17:24;33.85;;;22.55;;
54157;SDS011;40065;49.894;10.358;2022-11-11T18:22:45;25.88;;;16.65;;
54157;SDS011;40065;49.894;10.358;2022-11-11T18:28:05;29.80;;;17.35;;
54157;SDS011;40065;49.894;10.358;2022-11-11T18:33:26;22.10;;;14.20;;
54157;SDS011;40065;49.894;10.358;2022-11-11T18:38:47;21.08;;;13.75;;
54157;SDS011;40065;49.894;10.358;2022-11-11T18:44:07;19.30;;;12.95;;
54157;SDS011;40065;49.894;10.358;2022-11-11T18:49:27;15.40;;;11.38;;
54157;SDS011;40065;49.894;10.358;2022-11-11T18:54:47;14.90;;;11.38;;
54157;SDS011;40065;49.894;10.358;2022-11-11T19:00:08;16.00;;;11.00;;
54157;SDS011;40065;49.894;10.358;2022-11-11T19:05:28;20.85;;;14.48;;
54157;SDS011;40065;49.894;10.358;2022-11-11T19:10:49;22.48;;;14.13;;
54157;SDS011;40065;49.894;10.358;2022-11-11T19:16:13;20.42;;;14.52;;
54157;SDS011;40065;49.894;10.358;2022-11-11T19:21:34;17.30;;;12.90;;
54157;SDS011;40065;49.894;10.358;2022-11-11T19:26:56;21.63;;;15.45;;
54157;SDS011;40065;49.894;10.358;2022-11-11T19:32:16;29.65;;;20.70;;
54157;SDS011;40065;49.894;10.358;2022-11-11T19:37:36;23.95;;;15.93;;
54157;SDS011;40065;49.894;10.358;2022-11-11T19:42:57;33.47;;;21.05;;
54157;SDS011;40065;49.894;10.358;2022-11-11T19:48:17;20.05;;;14.35;;
54157;SDS011;40065;49.894;10.358;2022-11-11T19:53:37;18.38;;;13.38;;
54157;SDS011;40065;49.894;10.358;2022-11-11T19:58:58;26.92;;;17.25;;
54157;SDS011;40065;49.894;10.358;2022-11-11T20:04:22;24.70;;;15.98;;
54157;SDS011;40065;49.894;10.358;2022-11-11T20:09:42;24.88;;;18.20;;
54157;SDS011;40065;49.894;10.358;2022-11-11T20:15:02;18.77;;;13.48;;
54157;SDS011;40065;49.894;10.358;2022-11-11T20:20:23;18.85;;;13.60;;
54157;SDS011;40065;49.894;10.358;2022-11-11T20:25:43;19.25;;;13.20;;
54157;SDS011;40065;49.894;10.358;2022-11-11T20:36:31;26.55;;;16.15;;
54157;SDS011;40065;49.894;10.358;2022-11-11T20:41:51;17.70;;;13.20;;
54157;SDS011;40065;49.894;10.358;2022-11-11T20:47:12;15.40;;;11.30;;
54157;SDS011;40065;49.894;10.358;2022-11-11T20:52:32;13.77;;;9.85;;
54157;SDS011;40065;49.894;10.358;2022-11-11T20:57:52;12.63;;;8.73;;
54157;SDS011;40065;49.894;10.358;2022-11-11T21:03:12;13.98;;;8.88;;
54157;SDS011;40065;49.894;10.358;2022-11-11T21:08:33;11.48;;;7.70;;
54157;SDS011;40065;49.894;10.358;2022-11-11T21:13:56;16.83;;;11.52;;
54157;SDS011;40065;49.894;10.358;2022-11-11T21:19:16;17.55;;;11.35;;
54157;SDS011;40065;49.894;10.358;2022-11-11T21:24:37;20.67;;;13.05;;
54157;SDS011;40065;49.894;10.358;2022-11-11T21:29:57;21.42;;;14.02;;
54157;SDS011;40065;49.894;10.358;2022-11-11T21:35:17;19.60;;;13.15;;
54157;SDS011;40065;49.894;10.358;2022-11-11T21:40:37;17.75;;;12.20;;
54157;SDS011;40065;49.894;10.358;2022-11-11T21:46:01;26.48;;;13.60;;
54157;SDS011;40065;49.894;10.358;2022-11-11T21:51:24;18.73;;;13.38;;
54157;SDS011;40065;49.894;10.358;2022-11-11T21:56:46;13.45;;;9.10;;
54157;SDS011;40065;49.894;10.358;2022-11-11T22:02:07;16.83;;;11.70;;
54157;SDS011;40065;49.894;10.358;2022-11-11T22:07:28;17.15;;;10.88;;
54157;SDS011;40065;49.894;10.358;2022-11-11T22:12:49;13.15;;;9.73;;
54157;SDS011;40065;49.894;10.358;2022-11-11T22:18:09;12.95;;;9.48;;
54157;SDS011;40065;49.894;10.358;2022-11-11T22:23:30;19.13;;;12.77;;
54157;SDS011;40065;49.894;10.358;2022-11-11T22:28:50;17.15;;;11.65;;
54157;SDS011;40065;49.894;10.358;2022-11-11T22:34:14;13.27;;;9.32;;
54157;SDS011;40065;49.894;10.358;2022-11-11T22:39:34;14.20;;;10.05;;
54157;SDS011;40065;49.894;10.358;2022-11-11T22:44:54;19.10;;;12.05;;
54157;SDS011;40065;49.894;10.358;2022-11-11T22:50:14;16.65;;;11.18;;
54157;SDS011;40065;49.894;10.358;2022-11-11T22:55:35;12.98;;;8.82;;
54157;SDS011;40065;49.894;10.358;2022-11-11T23:00:59;16.80;;;10.68;;
54157;SDS011;40065;49.894;10.358;2022-11-11T23:06:22;15.38;;;9.80;;
54157;SDS011;40065;49.894;10.358;2022-11-11T23:11:47;15.23;;;10.75;;
54157;SDS011;40065;49.894;10.358;2022-11-11T23:17:08;13.55;;;10.13;;
54157;SDS011;40065;49.894;10.358;2022-11-11T23:22:28;14.13;;;9.63;;
54157;SDS011;40065;49.894;10.358;2022-11-11T23:27:48;56.33;;;25.63;;
54157;SDS011;40065;49.894;10.358;2022-11-11T23:33:08;30.75;;;18.33;;
54157;SDS011;40065;49.894;10.358;2022-11-11T23:38:29;17.02;;;11.52;;
54157;SDS011;40065;49.894;10.358;2022-11-11T23:43:49;12.95;;;9.32;;
54157;SDS011;40065;49.894;10.358;2022-11-11T23:49:09;14.93;;;9.73;;
54157;SDS011;40065;49.894;10.358;2022-11-11T23:54:29;16.02;;;10.38;;
54157;SDS011;40065;49.894;10.358;2022-11-11T23:59:50;13.80;;;8.90;;
